sensor_id;sensor_type;location;lat;lon;timestamp;temperature;humidity
75088;HTU21D;63664;44.868;40.600;2023-04-01T00:02:21;1.50;84.90
75088;HTU21D;63664;44.868;40.600;2023-04-01T00:04:47;1.50;84.92
75088;HTU21D;63664;44.868;40.600;2023-04-01T00:07:13;1.48;84.95
75088;HTU21D;63664;44.868;40.600;2023-04-01T00:09:42;1.47;84.99
75088;HTU21D;63664;44.868;40.600;2023-04-01T00:12:08;1.46;85.01
75088;HTU21D;63664;44.868;40.600;2023-04-01T00:14:37;1.45;85.02
75088;HTU21D;63664;44.868;40.600;2023-04-01T00:17:05;1.45;85.03
75088;HTU21D;63664;44.868;40.600;2023-04-01T00:19:32;1.42;85.04
75088;HTU21D;63664;44.868;40.600;2023-04-01T00:22:03;1.39;85.10
75088;HTU21D;63664;44.868;40.600;2023-04-01T00:24:34;1.36;85.12
75088;HTU21D;63664;44.868;40.600;2023-04-01T00:27:04;1.34;85.12
75088;HTU21D;63664;44.868;40.600;2023-04-01T00:29:30;1.28;85.11
75088;HTU21D;63664;44.868;40.600;2023-04-01T00:31:59;1.22;85.22
75088;HTU21D;63664;44.868;40.600;2023-04-01T00:34:31;1.20;85.29
75088;HTU21D;63664;44.868;40.600;2023-04-01T00:36:57;1.19;85.32
75088;HTU21D;63664;44.868;40.600;2023-04-01T00:39:23;1.18;85.31
75088;HTU21D;63664;44.868;40.600;2023-04-01T00:41:50;1.18;85.37
75088;HTU21D;63664;44.868;40.600;2023-04-01T00:44:28;1.18;85.40
75088;HTU21D;63664;44.868;40.600;2023-04-01T00:46:58;1.18;85.39
75088;HTU21D;63664;44.868;40.600;2023-04-01T00:49:29;1.18;85.48
75088;HTU21D;63664;44.868;40.600;2023-04-01T00:52:03;1.14;85.51
75088;HTU21D;63664;44.868;40.600;2023-04-01T00:54:32;1.14;85.50
75088;HTU21D;63664;44.868;40.600;2023-04-01T00:57:21;1.10;85.60
75088;HTU21D;63664;44.868;40.600;2023-04-01T00:59:52;1.05;85.58
75088;HTU21D;63664;44.868;40.600;2023-04-01T01:02:23;1.03;85.36
75088;HTU21D;63664;44.868;40.600;2023-04-01T01:04:50;0.96;85.51
75088;HTU21D;63664;44.868;40.600;2023-04-01T01:07:45;0.94;85.67
75088;HTU21D;63664;44.868;40.600;2023-04-01T01:15:41;0.91;85.67
75088;HTU21D;63664;44.868;40.600;2023-04-01T01:34:30;0.84;85.79
75088;HTU21D;63664;44.868;40.600;2023-04-01T01:37:02;0.84;85.82
75088;HTU21D;63664;44.868;40.600;2023-04-01T01:39:36;0.82;85.84
75088;HTU21D;63664;44.868;40.600;2023-04-01T01:42:07;0.83;85.83
75088;HTU21D;63664;44.868;40.600;2023-04-01T01:44:35;0.82;85.86
75088;HTU21D;63664;44.868;40.600;2023-04-01T01:47:03;0.83;85.88
75088;HTU21D;63664;44.868;40.600;2023-04-01T01:49:32;0.81;85.88
75088;HTU21D;63664;44.868;40.600;2023-04-01T01:51:59;0.81;85.87
75088;HTU21D;63664;44.868;40.600;2023-04-01T01:54:26;0.79;85.90
75088;HTU21D;63664;44.868;40.600;2023-04-01T01:57:13;0.72;86.00
75088;HTU21D;63664;44.868;40.600;2023-04-01T01:59:45;0.69;85.96
75088;HTU21D;63664;44.868;40.600;2023-04-01T02:02:30;0.67;85.96
75088;HTU21D;63664;44.868;40.600;2023-04-01T02:04:58;0.68;86.00
75088;HTU21D;63664;44.868;40.600;2023-04-01T02:07:28;0.66;86.04
75088;HTU21D;63664;44.868;40.600;2023-04-01T02:09:56;0.67;86.06
75088;HTU21D;63664;44.868;40.600;2023-04-01T02:12:27;0.66;86.03
75088;HTU21D;63664;44.868;40.600;2023-04-01T02:15:06;0.63;86.16
75088;HTU21D;63664;44.868;40.600;2023-04-01T02:17:39;0.60;86.12
75088;HTU21D;63664;44.868;40.600;2023-04-01T02:20:15;0.58;86.18
75088;HTU21D;63664;44.868;40.600;2023-04-01T02:22:50;0.57;86.16
75088;HTU21D;63664;44.868;40.600;2023-04-01T02:25:21;0.54;86.17
75088;HTU21D;63664;44.868;40.600;2023-04-01T02:27:49;0.50;86.19
75088;HTU21D;63664;44.868;40.600;2023-04-01T02:30:16;0.50;86.25
75088;HTU21D;63664;44.868;40.600;2023-04-01T02:32:43;0.46;86.23
75088;HTU21D;63664;44.868;40.600;2023-04-01T02:35:13;0.42;86.30
75088;HTU21D;63664;44.868;40.600;2023-04-01T02:37:40;0.40;86.31
75088;HTU21D;63664;44.868;40.600;2023-04-01T02:40:12;0.38;86.31
75088;HTU21D;63664;44.868;40.600;2023-04-01T02:42:40;0.38;86.31
75088;HTU21D;63664;44.868;40.600;2023-04-01T02:45:07;0.37;86.34
75088;HTU21D;63664;44.868;40.600;2023-04-01T02:47:34;0.36;86.38
75088;HTU21D;63664;44.868;40.600;2023-04-01T02:50:01;0.34;86.38
75088;HTU21D;63664;44.868;40.600;2023-04-01T02:52:28;0.33;86.40
75088;HTU21D;63664;44.868;40.600;2023-04-01T02:54:57;0.31;86.42
75088;HTU21D;63664;44.868;40.600;2023-04-01T02:57:24;0.33;86.42
75088;HTU21D;63664;44.868;40.600;2023-04-01T02:59:51;0.31;86.41
75088;HTU21D;63664;44.868;40.600;2023-04-01T03:02:20;0.31;86.45
75088;HTU21D;63664;44.868;40.600;2023-04-01T03:04:46;0.31;86.47
75088;HTU21D;63664;44.868;40.600;2023-04-01T03:07:17;0.29;86.48
75088;HTU21D;63664;44.868;40.600;2023-04-01T03:09:46;0.29;86.53
75088;HTU21D;63664;44.868;40.600;2023-04-01T03:12:12;0.28;86.53
75088;HTU21D;63664;44.868;40.600;2023-04-01T03:14:49;0.25;86.53
75088;HTU21D;63664;44.868;40.600;2023-04-01T03:17:15;0.22;86.60
75088;HTU21D;63664;44.868;40.600;2023-04-01T03:19:41;0.23;86.67
75088;HTU21D;63664;44.868;40.600;2023-04-01T03:22:11;0.24;86.67
75088;HTU21D;63664;44.868;40.600;2023-04-01T03:24:37;0.23;86.61
75088;HTU21D;63664;44.868;40.600;2023-04-01T03:27:03;0.22;86.64
75088;HTU21D;63664;44.868;40.600;2023-04-01T03:29:30;0.21;86.64
75088;HTU21D;63664;44.868;40.600;2023-04-01T03:32:01;0.22;86.65
75088;HTU21D;63664;44.868;40.600;2023-04-01T03:34:30;0.23;86.64
75088;HTU21D;63664;44.868;40.600;2023-04-01T03:36:57;0.25;86.67
75088;HTU21D;63664;44.868;40.600;2023-04-01T03:39:26;0.28;86.68
75088;HTU21D;63664;44.868;40.600;2023-04-01T03:41:52;0.31;86.68
75088;HTU21D;63664;44.868;40.600;2023-04-01T03:44:21;0.33;86.64
75088;HTU21D;63664;44.868;40.600;2023-04-01T03:46:54;0.36;86.65
75088;HTU21D;63664;44.868;40.600;2023-04-01T03:49:21;0.39;86.67
75088;HTU21D;63664;44.868;40.600;2023-04-01T03:51:47;0.44;86.69
75088;HTU21D;63664;44.868;40.600;2023-04-01T03:54:13;0.46;86.63
75088;HTU21D;63664;44.868;40.600;2023-04-01T03:56:40;0.51;86.65
75088;HTU21D;63664;44.868;40.600;2023-04-01T03:59:07;0.54;86.58
75088;HTU21D;63664;44.868;40.600;2023-04-01T04:01:36;0.59;86.56
75088;HTU21D;63664;44.868;40.600;2023-04-01T04:04:02;0.62;86.58
75088;HTU21D;63664;44.868;40.600;2023-04-01T04:06:29;0.68;86.61
75088;HTU21D;63664;44.868;40.600;2023-04-01T04:09:02;0.75;86.59
75088;HTU21D;63664;44.868;40.600;2023-04-01T04:11:31;0.79;86.58
75088;HTU21D;63664;44.868;40.600;2023-04-01T04:13:59;0.86;86.60
75088;HTU21D;63664;44.868;40.600;2023-04-01T04:16:28;0.95;86.58
75088;HTU21D;63664;44.868;40.600;2023-04-01T04:19:01;1.05;86.51
75088;HTU21D;63664;44.868;40.600;2023-04-01T04:21:27;1.13;86.48
75088;HTU21D;63664;44.868;40.600;2023-04-01T04:23:56;1.22;86.48
75088;HTU21D;63664;44.868;40.600;2023-04-01T04:26:23;1.29;86.51
75088;HTU21D;63664;44.868;40.600;2023-04-01T04:28:56;1.39;86.48
75088;HTU21D;63664;44.868;40.600;2023-04-01T04:31:24;1.49;86.47
75088;HTU21D;63664;44.868;40.600;2023-04-01T04:33:53;1.60;86.43
75088;HTU21D;63664;44.868;40.600;2023-04-01T04:36:22;1.68;86.46
75088;HTU21D;63664;44.868;40.600;2023-04-01T04:38:50;1.80;86.40
75088;HTU21D;63664;44.868;40.600;2023-04-01T04:41:18;1.88;86.37
75088;HTU21D;63664;44.868;40.600;2023-04-01T04:43:52;1.97;86.35
75088;HTU21D;63664;44.868;40.600;2023-04-01T04:46:24;2.09;86.32
75088;HTU21D;63664;44.868;40.600;2023-04-01T04:48:58;2.21;86.22
75088;HTU21D;63664;44.868;40.600;2023-04-01T04:51:30;2.32;86.19
75088;HTU21D;63664;44.868;40.600;2023-04-01T04:54:00;2.44;86.13
75088;HTU21D;63664;44.868;40.600;2023-04-01T04:56:40;2.55;86.05
75088;HTU21D;63664;44.868;40.600;2023-04-01T04:59:08;2.68;85.97
75088;HTU21D;63664;44.868;40.600;2023-04-01T05:01:46;2.83;85.85
75088;HTU21D;63664;44.868;40.600;2023-04-01T05:04:18;2.97;85.71
75088;HTU21D;63664;44.868;40.600;2023-04-01T05:06:48;3.12;85.62
75088;HTU21D;63664;44.868;40.600;2023-04-01T05:09:16;3.27;85.51
75088;HTU21D;63664;44.868;40.600;2023-04-01T05:11:45;3.41;85.33
75088;HTU21D;63664;44.868;40.600;2023-04-01T05:14:15;3.57;85.16
75088;HTU21D;63664;44.868;40.600;2023-04-01T05:16:48;3.71;85.20
75088;HTU21D;63664;44.868;40.600;2023-04-01T05:19:20;3.82;84.76
75088;HTU21D;63664;44.868;40.600;2023-04-01T05:21:46;3.93;84.68
75088;HTU21D;63664;44.868;40.600;2023-04-01T05:24:15;4.08;84.58
75088;HTU21D;63664;44.868;40.600;2023-04-01T05:26:42;4.26;84.33
75088;HTU21D;63664;44.868;40.600;2023-04-01T05:29:08;4.42;84.13
75088;HTU21D;63664;44.868;40.600;2023-04-01T05:31:36;4.59;83.91
75088;HTU21D;63664;44.868;40.600;2023-04-01T05:34:06;4.76;83.70
75088;HTU21D;63664;44.868;40.600;2023-04-01T05:36:32;4.93;83.45
75088;HTU21D;63664;44.868;40.600;2023-04-01T05:39:02;5.10;83.20
75088;HTU21D;63664;44.868;40.600;2023-04-01T05:41:35;5.30;82.90
75088;HTU21D;63664;44.868;40.600;2023-04-01T05:44:10;5.48;82.62
75088;HTU21D;63664;44.868;40.600;2023-04-01T05:46:41;5.65;82.36
75088;HTU21D;63664;44.868;40.600;2023-04-01T05:49:23;5.81;82.09
75088;HTU21D;63664;44.868;40.600;2023-04-01T05:51:50;5.98;81.97
75088;HTU21D;63664;44.868;40.600;2023-04-01T05:54:18;6.15;81.74
75088;HTU21D;63664;44.868;40.600;2023-04-01T05:56:48;6.34;81.52
75088;HTU21D;63664;44.868;40.600;2023-04-01T05:59:15;6.51;81.27
75088;HTU21D;63664;44.868;40.600;2023-04-01T06:01:41;6.72;81.07
75088;HTU21D;63664;44.868;40.600;2023-04-01T06:04:15;6.89;80.69
75088;HTU21D;63664;44.868;40.600;2023-04-01T06:06:45;7.07;80.52
75088;HTU21D;63664;44.868;40.600;2023-04-01T06:09:19;7.25;80.30
75088;HTU21D;63664;44.868;40.600;2023-04-01T06:23:59;8.09;78.63
75088;HTU21D;63664;44.868;40.600;2023-04-01T06:29:47;8.51;77.74
75088;HTU21D;63664;44.868;40.600;2023-04-01T06:35:23;8.79;77.08
75088;HTU21D;63664;44.868;40.600;2023-04-01T06:43:51;9.19;75.93
75088;HTU21D;63664;44.868;40.600;2023-04-01T06:49:55;9.47;75.12
75088;HTU21D;63664;44.868;40.600;2023-04-01T06:53:19;9.64;75.02
75088;HTU21D;63664;44.868;40.600;2023-04-01T06:56:12;9.80;74.22
75088;HTU21D;63664;44.868;40.600;2023-04-01T06:59:15;9.90;74.28
75088;HTU21D;63664;44.868;40.600;2023-04-01T07:04:46;10.37;73.22
75088;HTU21D;63664;44.868;40.600;2023-04-01T07:10:43;10.50;72.70
75088;HTU21D;63664;44.868;40.600;2023-04-01T07:13:54;10.81;72.41
75088;HTU21D;63664;44.868;40.600;2023-04-01T07:19:32;11.17;71.32
75088;HTU21D;63664;44.868;40.600;2023-04-01T07:22:29;11.28;70.74
75088;HTU21D;63664;44.868;40.600;2023-04-01T07:25:29;11.46;70.64
75088;HTU21D;63664;44.868;40.600;2023-04-01T07:28:37;11.57;69.81
75088;HTU21D;63664;44.868;40.600;2023-04-01T07:34:50;11.91;68.89
75088;HTU21D;63664;44.868;40.600;2023-04-01T07:51:31;12.82;65.88
75088;HTU21D;63664;44.868;40.600;2023-04-01T07:59:59;13.29;64.74
75088;HTU21D;63664;44.868;40.600;2023-04-01T08:21:42;14.22;60.99
75088;HTU21D;63664;44.868;40.600;2023-04-01T08:24:32;14.43;60.68
75088;HTU21D;63664;44.868;40.600;2023-04-01T08:27:06;14.69;59.50
75088;HTU21D;63664;44.868;40.600;2023-04-01T08:32:15;14.70;59.67
75088;HTU21D;63664;44.868;40.600;2023-04-01T08:34:51;14.67;59.16
75088;HTU21D;63664;44.868;40.600;2023-04-01T08:37:33;14.92;58.90
75088;HTU21D;63664;44.868;40.600;2023-04-01T08:43:27;15.23;56.83
75088;HTU21D;63664;44.868;40.600;2023-04-01T08:49:19;15.46;56.23
75088;HTU21D;63664;44.868;40.600;2023-04-01T09:04:04;16.11;53.35
75088;HTU21D;63664;44.868;40.600;2023-04-01T09:07:14;15.80;53.56
75088;HTU21D;63664;44.868;40.600;2023-04-01T09:12:37;16.21;52.02
75088;HTU21D;63664;44.868;40.600;2023-04-01T09:25:33;16.95;50.38
75088;HTU21D;63664;44.868;40.600;2023-04-01T09:28:19;17.00;49.91
75088;HTU21D;63664;44.868;40.600;2023-04-01T09:40:18;17.30;49.50
75088;HTU21D;63664;44.868;40.600;2023-04-01T09:43:16;17.44;48.25
75088;HTU21D;63664;44.868;40.600;2023-04-01T09:51:39;17.84;47.31
75088;HTU21D;63664;44.868;40.600;2023-04-01T10:20:18;18.20;43.96
75088;HTU21D;63664;44.868;40.600;2023-04-01T10:26:39;18.59;42.58
75088;HTU21D;63664;44.868;40.600;2023-04-01T10:40:35;19.15;39.92
75088;HTU21D;63664;44.868;40.600;2023-04-01T10:46:31;19.32;39.68
75088;HTU21D;63664;44.868;40.600;2023-04-01T10:51:56;19.52;38.85
75088;HTU21D;63664;44.868;40.600;2023-04-01T10:58:04;19.33;39.04
75088;HTU21D;63664;44.868;40.600;2023-04-01T11:10:41;18.95;37.85
75088;HTU21D;63664;44.868;40.600;2023-04-01T11:13:30;19.18;37.89
75088;HTU21D;63664;44.868;40.600;2023-04-01T11:45:23;19.61;34.41
75088;HTU21D;63664;44.868;40.600;2023-04-01T11:51:30;19.67;33.91
75088;HTU21D;63664;44.868;40.600;2023-04-01T11:54:14;19.65;33.97
75088;HTU21D;63664;44.868;40.600;2023-04-01T11:56:52;19.53;34.39
75088;HTU21D;63664;44.868;40.600;2023-04-01T12:03:21;19.45;33.91
75088;HTU21D;63664;44.868;40.600;2023-04-01T12:05:33;19.28;34.90
75088;HTU21D;63664;44.868;40.600;2023-04-01T12:16:15;19.39;34.18
75088;HTU21D;63664;44.868;40.600;2023-04-01T12:24:08;19.38;34.66
75088;HTU21D;63664;44.868;40.600;2023-04-01T12:37:50;19.35;34.21
75088;HTU21D;63664;44.868;40.600;2023-04-01T12:44:13;19.32;34.34
75088;HTU21D;63664;44.868;40.600;2023-04-01T12:49:55;19.20;34.35
75088;HTU21D;63664;44.868;40.600;2023-04-01T12:55:12;19.10;33.74
75088;HTU21D;63664;44.868;40.600;2023-04-01T13:03:53;19.05;33.87
75088;HTU21D;63664;44.868;40.600;2023-04-01T13:12:48;18.91;33.57
75088;HTU21D;63664;44.868;40.600;2023-04-01T13:20:44;18.57;34.73
75088;HTU21D;63664;44.868;40.600;2023-04-01T13:26:30;18.41;34.53
75088;HTU21D;63664;44.868;40.600;2023-04-01T13:31:48;18.30;34.52
75088;HTU21D;63664;44.868;40.600;2023-04-01T13:34:37;18.27;34.53
75088;HTU21D;63664;44.868;40.600;2023-04-01T13:43:01;17.94;34.55
75088;HTU21D;63664;44.868;40.600;2023-04-01T13:46:06;17.85;34.46
75088;HTU21D;63664;44.868;40.600;2023-04-01T13:48:39;17.74;35.05
75088;HTU21D;63664;44.868;40.600;2023-04-01T13:54:24;17.56;34.91
75088;HTU21D;63664;44.868;40.600;2023-04-01T14:08:26;17.47;34.89
75088;HTU21D;63664;44.868;40.600;2023-04-01T14:30:30;16.79;35.63
75088;HTU21D;63664;44.868;40.600;2023-04-01T14:33:26;16.75;35.72
75088;HTU21D;63664;44.868;40.600;2023-04-01T14:48:23;16.21;36.39
75088;HTU21D;63664;44.868;40.600;2023-04-01T14:50:54;16.12;36.63
75088;HTU21D;63664;44.868;40.600;2023-04-01T14:53:36;16.03;36.66
75088;HTU21D;63664;44.868;40.600;2023-04-01T14:56:08;15.97;36.99
75088;HTU21D;63664;44.868;40.600;2023-04-01T14:58:49;15.86;36.91
75088;HTU21D;63664;44.868;40.600;2023-04-01T15:07:07;15.57;37.27
75088;HTU21D;63664;44.868;40.600;2023-04-01T15:31:04;14.49;39.22
75088;HTU21D;63664;44.868;40.600;2023-04-01T15:36:36;14.29;39.36
75088;HTU21D;63664;44.868;40.600;2023-04-01T15:39:14;14.23;39.49
75088;HTU21D;63664;44.868;40.600;2023-04-01T15:42:09;14.17;39.75
75088;HTU21D;63664;44.868;40.600;2023-04-01T16:01:07;13.71;41.05
75088;HTU21D;63664;44.868;40.600;2023-04-01T16:04:29;13.46;41.85
75088;HTU21D;63664;44.868;40.600;2023-04-01T16:13:03;12.88;43.32
75088;HTU21D;63664;44.868;40.600;2023-04-01T16:18:36;12.57;44.16
75088;HTU21D;63664;44.868;40.600;2023-04-01T16:21:10;12.43;44.63
75088;HTU21D;63664;44.868;40.600;2023-04-01T16:23:46;12.29;44.79
75088;HTU21D;63664;44.868;40.600;2023-04-01T16:26:47;12.11;45.18
75088;HTU21D;63664;44.868;40.600;2023-04-01T16:32:02;11.89;45.63
75088;HTU21D;63664;44.868;40.600;2023-04-01T16:35:05;11.79;46.10
75088;HTU21D;63664;44.868;40.600;2023-04-01T16:46:39;11.23;47.01
75088;HTU21D;63664;44.868;40.600;2023-04-01T16:54:36;10.82;49.29
75088;HTU21D;63664;44.868;40.600;2023-04-01T17:03:32;10.56;49.60
75088;HTU21D;63664;44.868;40.600;2023-04-01T17:11:56;10.33;49.62
75088;HTU21D;63664;44.868;40.600;2023-04-01T17:14:52;10.25;49.63
75088;HTU21D;63664;44.868;40.600;2023-04-01T17:20:19;10.08;50.06
75088;HTU21D;63664;44.868;40.600;2023-04-01T17:23:00;9.96;50.66
75088;HTU21D;63664;44.868;40.600;2023-04-01T17:28:20;9.79;51.63
75088;HTU21D;63664;44.868;40.600;2023-04-01T17:39:30;9.47;53.13
75088;HTU21D;63664;44.868;40.600;2023-04-01T17:42:09;9.38;53.49
75088;HTU21D;63664;44.868;40.600;2023-04-01T17:50:23;9.19;54.22
75088;HTU21D;63664;44.868;40.600;2023-04-01T18:06:33;8.58;55.84
75088;HTU21D;63664;44.868;40.600;2023-04-01T18:09:22;8.45;56.36
75088;HTU21D;63664;44.868;40.600;2023-04-01T18:12:07;8.36;56.32
75088;HTU21D;63664;44.868;40.600;2023-04-01T18:23:30;8.15;58.03
75088;HTU21D;63664;44.868;40.600;2023-04-01T18:26:06;8.11;58.20
75088;HTU21D;63664;44.868;40.600;2023-04-01T18:28:39;8.07;58.59
75088;HTU21D;63664;44.868;40.600;2023-04-01T18:31:18;8.04;58.98
75088;HTU21D;63664;44.868;40.600;2023-04-01T18:36:36;7.91;59.25
75088;HTU21D;63664;44.868;40.600;2023-04-01T18:39:30;7.83;59.77
75088;HTU21D;63664;44.868;40.600;2023-04-01T18:42:38;7.77;60.12
75088;HTU21D;63664;44.868;40.600;2023-04-01T18:45:33;7.71;60.23
75088;HTU21D;63664;44.868;40.600;2023-04-01T18:48:28;7.64;60.60
75088;HTU21D;63664;44.868;40.600;2023-04-01T18:50:59;7.58;60.50
75088;HTU21D;63664;44.868;40.600;2023-04-01T18:53:35;7.52;60.92
75088;HTU21D;63664;44.868;40.600;2023-04-01T18:56:06;7.48;61.03
75088;HTU21D;63664;44.868;40.600;2023-04-01T18:58:50;7.43;61.34
75088;HTU21D;63664;44.868;40.600;2023-04-01T19:06:57;7.30;62.15
75088;HTU21D;63664;44.868;40.600;2023-04-01T19:09:47;7.25;62.24
75088;HTU21D;63664;44.868;40.600;2023-04-01T19:20:44;7.13;63.03
75088;HTU21D;63664;44.868;40.600;2023-04-01T19:23:42;7.11;63.08
75088;HTU21D;63664;44.868;40.600;2023-04-01T19:29:43;7.00;63.53
75088;HTU21D;63664;44.868;40.600;2023-04-01T19:35:38;6.95;64.14
75088;HTU21D;63664;44.868;40.600;2023-04-01T19:38:37;6.90;64.27
75088;HTU21D;63664;44.868;40.600;2023-04-01T19:41:29;6.87;64.30
75088;HTU21D;63664;44.868;40.600;2023-04-01T19:44:30;6.79;64.43
75088;HTU21D;63664;44.868;40.600;2023-04-01T19:47:14;6.73;64.49
75088;HTU21D;63664;44.868;40.600;2023-04-01T19:49:57;6.71;64.69
75088;HTU21D;63664;44.868;40.600;2023-04-01T19:52:33;6.64;64.85
75088;HTU21D;63664;44.868;40.600;2023-04-01T20:00:52;6.56;65.48
75088;HTU21D;63664;44.868;40.600;2023-04-01T20:13:58;6.36;66.53
75088;HTU21D;63664;44.868;40.600;2023-04-01T20:16:48;6.31;66.86
75088;HTU21D;63664;44.868;40.600;2023-04-01T20:19:57;6.29;66.98
75088;HTU21D;63664;44.868;40.600;2023-04-01T20:25:18;6.26;66.89
75088;HTU21D;63664;44.868;40.600;2023-04-01T20:27:58;6.23;67.11
75088;HTU21D;63664;44.868;40.600;2023-04-01T20:36:31;6.07;67.42
75088;HTU21D;63664;44.868;40.600;2023-04-01T20:42:03;5.94;67.22
75088;HTU21D;63664;44.868;40.600;2023-04-01T20:50:58;5.84;67.76
75088;HTU21D;63664;44.868;40.600;2023-04-01T20:53:43;5.84;67.55
75088;HTU21D;63664;44.868;40.600;2023-04-01T21:05:00;5.76;68.36
75088;HTU21D;63664;44.868;40.600;2023-04-01T21:21:07;5.68;68.75
75088;HTU21D;63664;44.868;40.600;2023-04-01T21:27:19;5.63;68.81
75088;HTU21D;63664;44.868;40.600;2023-04-01T21:29:53;5.55;68.68
75088;HTU21D;63664;44.868;40.600;2023-04-01T21:32:33;5.52;68.86
75088;HTU21D;63664;44.868;40.600;2023-04-01T21:40:27;5.47;69.15
75088;HTU21D;63664;44.868;40.600;2023-04-01T21:49:15;5.34;69.38
75088;HTU21D;63664;44.868;40.600;2023-04-01T21:52:07;5.30;69.53
75088;HTU21D;63664;44.868;40.600;2023-04-01T21:54:44;5.30;69.36
75088;HTU21D;63664;44.868;40.600;2023-04-01T22:00:23;5.22;69.90
75088;HTU21D;63664;44.868;40.600;2023-04-01T22:05:57;5.22;69.88
75088;HTU21D;63664;44.868;40.600;2023-04-01T22:13:56;5.15;70.10
75088;HTU21D;63664;44.868;40.600;2023-04-01T22:16:50;5.09;70.27
75088;HTU21D;63664;44.868;40.600;2023-04-01T22:22:14;5.05;70.52
75088;HTU21D;63664;44.868;40.600;2023-04-01T22:25:07;5.00;70.51
75088;HTU21D;63664;44.868;40.600;2023-04-01T22:27:49;4.89;70.45
75088;HTU21D;63664;44.868;40.600;2023-04-01T22:30:20;4.79;70.77
75088;HTU21D;63664;44.868;40.600;2023-04-01T22:33:07;4.76;71.13
75088;HTU21D;63664;44.868;40.600;2023-04-01T22:35:52;4.75;71.06
75088;HTU21D;63664;44.868;40.600;2023-04-01T22:41:05;4.68;71.45
75088;HTU21D;63664;44.868;40.600;2023-04-01T22:43:41;4.68;71.32
75088;HTU21D;63664;44.868;40.600;2023-04-01T22:46:26;4.68;71.61
75088;HTU21D;63664;44.868;40.600;2023-04-01T22:54:32;4.63;71.75
75088;HTU21D;63664;44.868;40.600;2023-04-01T22:57:07;4.62;71.76
75088;HTU21D;63664;44.868;40.600;2023-04-01T22:59:58;4.58;71.87
75088;HTU21D;63664;44.868;40.600;2023-04-01T23:02:36;4.57;71.95
75088;HTU21D;63664;44.868;40.600;2023-04-01T23:05:05;4.54;72.00
75088;HTU21D;63664;44.868;40.600;2023-04-01T23:08:05;4.53;72.26
75088;HTU21D;63664;44.868;40.600;2023-04-01T23:10:44;4.52;72.06
75088;HTU21D;63664;44.868;40.600;2023-04-01T23:13:21;4.49;72.28
75088;HTU21D;63664;44.868;40.600;2023-04-01T23:15:51;4.48;72.32
75088;HTU21D;63664;44.868;40.600;2023-04-01T23:21:13;4.39;72.57
75088;HTU21D;63664;44.868;40.600;2023-04-01T23:26:36;4.29;72.67
75088;HTU21D;63664;44.868;40.600;2023-04-01T23:29:16;4.26;72.98
75088;HTU21D;63664;44.868;40.600;2023-04-01T23:31:48;4.24;73.03
75088;HTU21D;63664;44.868;40.600;2023-04-01T23:34:49;4.24;73.28
75088;HTU21D;63664;44.868;40.600;2023-04-01T23:37:21;4.27;73.08
75088;HTU21D;63664;44.868;40.600;2023-04-01T23:39:58;4.26;73.19
75088;HTU21D;63664;44.868;40.600;2023-04-01T23:42:26;4.26;73.22
75088;HTU21D;63664;44.868;40.600;2023-04-01T23:44:58;4.23;73.34
75088;HTU21D;63664;44.868;40.600;2023-04-01T23:50:32;4.18;73.89
75088;HTU21D;63664;44.868;40.600;2023-04-01T23:53:09;4.17;73.76
75088;HTU21D;63664;44.868;40.600;2023-04-01T23:55:40;4.16;73.83
